createdAt,value
2019-05-25T00:01:55.217Z,62.13
2019-05-25T00:04:27.257Z,61.53
2019-05-25T00:06:59.197Z,61.06
2019-05-25T00:09:31.201Z,61.04
2019-05-25T00:12:03.076Z,62.07
2019-05-25T00:14:34.940Z,62.23
2019-05-25T00:17:06.749Z,62.45
2019-05-25T00:19:38.556Z,62.62
2019-05-25T00:22:10.353Z,62.78
2019-05-25T00:24:42.248Z,63.09
2019-05-25T00:27:14.121Z,63.22
2019-05-25T00:29:46.001Z,63.83
2019-05-25T00:32:18.427Z,64.18
2019-05-25T00:34:50.483Z,64.40
2019-05-25T00:37:22.365Z,64.38
2019-05-25T00:39:54.228Z,64.86
2019-05-25T00:42:26.144Z,65.10
2019-05-25T00:44:58.340Z,64.91
2019-05-25T00:47:30.373Z,64.18
2019-05-25T00:50:03.246Z,64.28
2019-05-25T00:52:35.296Z,64.19
2019-05-25T00:55:07.944Z,64.55
2019-05-25T00:57:39.800Z,64.35
2019-05-25T01:00:11.780Z,64.35
2019-05-25T01:02:43.678Z,64.99
2019-05-25T01:05:15.737Z,65.48
2019-05-25T01:07:47.629Z,65.10
2019-05-25T01:10:19.606Z,65.21
2019-05-25T01:12:51.487Z,65.21
2019-05-25T01:15:24.311Z,65.60
2019-05-25T01:17:56.257Z,65.61
2019-05-25T01:20:28.344Z,65.34
2019-05-25T01:23:00.356Z,64.96
2019-05-25T01:25:33.584Z,65.49
2019-05-25T01:28:05.451Z,65.49
2019-05-25T01:30:37.530Z,65.65
2019-05-25T01:33:10.743Z,65.32
2019-05-25T01:35:42.813Z,64.94
2019-05-25T01:38:14.826Z,64.81
2019-05-25T01:40:48.024Z,64.47
2019-05-25T01:43:19.825Z,64.08
2019-05-25T01:45:52.536Z,63.99
2019-05-25T01:48:24.594Z,63.99
2019-05-25T01:50:57.204Z,64.25
2019-05-25T01:53:29.022Z,64.82
2019-05-25T01:56:00.907Z,64.82
2019-05-25T01:58:32.778Z,64.62
2019-05-25T02:01:04.581Z,64.72
2019-05-25T02:03:36.471Z,64.79
2019-05-25T02:06:08.418Z,65.35
2019-05-25T02:08:40.456Z,65.20
2019-05-25T02:11:12.341Z,64.47
2019-05-25T02:13:54.032Z,64.68
2019-05-25T02:16:25.931Z,65.25
2019-05-25T02:18:57.801Z,65.25
2019-05-25T02:21:29.658Z,65.49
2019-05-25T02:24:02.629Z,65.72
2019-05-25T02:26:34.579Z,66.03
2019-05-25T02:29:06.716Z,66.27
2019-05-25T02:31:38.549Z,66.06
2019-05-25T02:34:10.421Z,65.58
2019-05-25T02:36:42.236Z,65.22
2019-05-25T02:39:14.054Z,65.18
2019-05-25T02:41:45.925Z,64.80
2019-05-25T02:44:17.812Z,64.41
2019-05-25T02:46:49.701Z,64.33
2019-05-25T02:49:21.514Z,64.90
2019-05-25T02:51:53.606Z,65.50
2019-05-25T02:54:25.470Z,65.30
2019-05-25T02:56:57.609Z,64.75
2019-05-25T02:59:29.410Z,65.26
2019-05-25T03:02:01.208Z,65.20
2019-05-25T03:04:33.120Z,65.36
2019-05-25T03:07:04.921Z,65.42
2019-05-25T03:09:38.519Z,65.28
2019-05-25T03:12:10.343Z,64.78
2019-05-25T03:14:42.231Z,65.32
2019-05-25T03:17:15.006Z,65.47
2019-05-25T03:19:46.894Z,64.68
2019-05-25T03:22:18.699Z,64.77
2019-05-25T03:24:50.677Z,65.13
2019-05-25T03:27:23.073Z,64.76
2019-05-25T03:29:55.689Z,64.27
2019-05-25T03:32:27.707Z,63.79
2019-05-25T03:34:59.664Z,64.82
2019-05-25T03:37:31.535Z,63.83
2019-05-25T03:40:03.419Z,63.88
2019-05-25T03:42:35.408Z,63.88
2019-05-25T03:45:07.532Z,63.42
2019-05-25T03:47:39.418Z,63.32
2019-05-25T03:50:11.323Z,62.92
2019-05-25T03:52:43.193Z,62.65
2019-05-25T03:55:15.451Z,62.65
2019-05-25T03:57:47.315Z,62.30
2019-05-25T04:00:31.918Z,63.15
2019-05-25T04:03:03.903Z,61.98
2019-05-25T04:05:35.837Z,61.86
2019-05-25T04:08:07.720Z,61.93
2019-05-25T04:10:39.653Z,61.75
2019-05-25T04:13:11.626Z,62.30
2019-05-25T04:15:43.443Z,62.37
2019-05-25T04:18:15.327Z,62.37
2019-05-25T04:20:47.294Z,62.36
2019-05-25T04:23:19.202Z,62.36
2019-05-25T04:25:51.402Z,63.36
2019-05-25T04:28:23.373Z,62.93
2019-05-25T04:30:55.259Z,62.09
2019-05-25T04:33:27.289Z,63.32
2019-05-25T04:35:59.195Z,63.17
2019-05-25T04:38:31.050Z,63.07
2019-05-25T04:41:02.845Z,62.13
2019-05-25T04:43:34.637Z,62.22
2019-05-25T04:46:06.450Z,62.11
2019-05-25T04:48:38.283Z,62.17
2019-05-25T04:51:10.076Z,62.17
2019-05-25T04:53:41.890Z,61.16
2019-05-25T04:56:13.682Z,61.16
2019-05-25T04:58:45.717Z,61.11
2019-05-25T05:01:17.716Z,60.81
2019-05-25T05:03:49.582Z,60.81
2019-05-25T05:06:21.472Z,61.38
2019-05-25T05:08:53.297Z,61.54
2019-05-25T05:11:25.353Z,61.54
2019-05-25T05:13:57.270Z,60.73
2019-05-25T05:16:29.258Z,60.51
2019-05-25T05:19:01.110Z,62.14
2019-05-25T05:21:33.389Z,60.66
2019-05-25T05:24:05.549Z,60.37
2019-05-25T05:26:37.427Z,60.26
2019-05-25T05:29:09.219Z,60.85
2019-05-25T05:31:41.005Z,61.04
2019-05-25T05:34:12.859Z,61.73
2019-05-25T05:36:45.285Z,62.04
2019-05-25T05:39:17.071Z,61.08
2019-05-25T05:41:49.432Z,61.36
2019-05-25T05:44:22.853Z,60.78
2019-05-25T05:46:55.246Z,61.68
2019-05-25T05:49:28.628Z,61.86
2019-05-25T05:52:03.683Z,62.41
2019-05-25T05:54:35.651Z,61.23
2019-05-25T05:57:12.111Z,61.40
2019-05-25T05:59:41.025Z,61.34
2019-05-25T06:02:12.871Z,60.90
2019-05-25T06:04:44.668Z,60.60
2019-05-25T06:07:16.533Z,58.89
2019-05-25T06:09:48.384Z,58.69
2019-05-25T06:12:20.399Z,58.61
2019-05-25T06:14:52.457Z,58.77
2019-05-25T06:17:24.360Z,59.15
2019-05-25T06:19:57.357Z,58.96
2019-05-25T06:22:29.167Z,59.09
2019-05-25T06:25:01.031Z,59.44
2019-05-25T06:27:34.004Z,59.42
2019-05-25T06:30:06.916Z,59.14
2019-05-25T06:32:38.959Z,58.65
2019-05-25T06:35:11.082Z,59.88
2019-05-25T06:37:42.957Z,58.45
2019-05-25T06:40:15.043Z,59.43
2019-05-25T06:42:46.911Z,59.12
2019-05-25T06:45:19.191Z,58.95
2019-05-25T06:47:51.062Z,59.76
2019-05-25T06:50:22.854Z,59.72
2019-05-25T06:52:57.833Z,58.19
2019-05-25T06:55:28.408Z,59.12
2019-05-25T06:58:00.414Z,58.72
2019-05-25T07:00:32.279Z,58.58
2019-05-25T07:03:04.069Z,58.23
2019-05-25T07:05:36.004Z,57.62
2019-05-25T07:08:07.917Z,57.62
2019-05-25T07:10:39.893Z,57.45
2019-05-25T07:13:11.808Z,58.50
2019-05-25T07:15:43.690Z,58.10
2019-05-25T07:18:15.555Z,57.71
2019-05-25T07:20:47.426Z,58.30
2019-05-25T07:23:19.316Z,58.63
2019-05-25T07:25:51.207Z,58.69
2019-05-25T07:28:23.067Z,57.11
2019-05-25T07:30:54.904Z,56.06
2019-05-25T07:33:26.742Z,57.81
2019-05-25T07:35:58.621Z,57.29
2019-05-25T07:38:31.390Z,55.33
2019-05-25T07:41:03.210Z,56.78
2019-05-25T07:43:35.094Z,56.54
2019-05-25T07:46:06.970Z,57.79
2019-05-25T07:48:38.782Z,57.10
2019-05-25T07:51:10.580Z,56.97
2019-05-25T07:53:42.450Z,57.05
2019-05-25T07:56:14.235Z,56.44
2019-05-25T07:58:46.098Z,56.77
2019-05-25T08:01:18.104Z,57.45
2019-05-25T08:03:50.246Z,56.91
2019-05-25T08:06:22.285Z,56.94
2019-05-25T08:08:54.102Z,57.30
2019-05-25T08:11:25.932Z,56.58
2019-05-25T08:13:57.768Z,55.77
2019-05-25T08:16:29.625Z,57.34
2019-05-25T08:19:02.960Z,56.29
2019-05-25T08:21:37.118Z,54.29
2019-05-25T08:24:09.212Z,54.98
2019-05-25T08:26:41.156Z,54.23
2019-05-25T08:29:13.107Z,54.43
2019-05-25T08:31:45.234Z,54.76
2019-05-25T08:34:17.106Z,53.48
2019-05-25T08:36:49.212Z,53.92
2019-05-25T08:39:23.674Z,52.80
2019-05-25T08:41:55.519Z,54.14
2019-05-25T08:44:28.365Z,53.14
2019-05-25T08:47:00.411Z,53.73
2019-05-25T08:49:32.272Z,53.24
2019-05-25T08:52:04.334Z,53.21
2019-05-25T08:54:36.210Z,52.10
2019-05-25T08:57:08.071Z,52.45
2019-05-25T08:59:39.896Z,51.98
2019-05-25T09:02:11.787Z,51.47
2019-05-25T09:04:43.660Z,49.93
2019-05-25T09:07:15.523Z,50.45
2019-05-25T09:09:47.393Z,50.50
2019-05-25T09:12:19.267Z,50.36
2019-05-25T09:14:51.115Z,49.80
2019-05-25T09:17:22.987Z,50.26
2019-05-25T09:19:54.933Z,50.04
2019-05-25T09:22:26.772Z,49.79
2019-05-25T09:24:58.862Z,49.02
2019-05-25T09:27:30.887Z,50.45
2019-05-25T09:30:02.785Z,51.83
2019-05-25T09:32:34.644Z,49.91
2019-05-25T09:35:06.562Z,49.44
2019-05-25T09:37:39.505Z,49.78
2019-05-25T09:40:11.504Z,48.61
2019-05-25T09:42:43.919Z,48.81
2019-05-25T09:45:15.830Z,48.39
2019-05-25T09:47:48.682Z,47.64
2019-05-25T09:50:20.577Z,48.12
2019-05-25T09:52:52.912Z,47.25
2019-05-25T09:55:24.752Z,47.64
2019-05-25T09:57:56.615Z,46.80
2019-05-25T10:00:29.105Z,47.23
2019-05-25T10:03:01.447Z,46.34
2019-05-25T10:05:33.845Z,46.55
2019-05-25T10:08:06.355Z,46.55
2019-05-25T10:10:38.967Z,46.17
2019-05-25T10:13:11.406Z,46.74
2019-05-25T10:15:43.856Z,46.16
2019-05-25T10:18:17.743Z,45.06
2019-05-25T10:20:51.236Z,45.22
2019-05-25T10:23:23.685Z,44.69
2019-05-25T10:25:55.540Z,44.00
2019-05-25T10:28:28.024Z,43.80
2019-05-25T10:31:00.386Z,43.61
2019-05-25T10:33:33.217Z,43.69
2019-05-25T10:36:05.336Z,44.66
2019-05-25T10:38:37.909Z,44.23
2019-05-25T10:41:10.609Z,43.34
2019-05-25T10:43:43.288Z,42.87
2019-05-25T10:46:15.691Z,43.68
2019-05-25T10:48:48.837Z,43.81
2019-05-25T10:51:21.098Z,42.10
2019-05-25T10:53:52.987Z,40.68
2019-05-25T10:56:24.933Z,41.69
2019-05-25T10:58:56.960Z,42.03
2019-05-25T11:01:28.960Z,41.47
2019-05-25T11:04:00.984Z,40.65
2019-05-25T11:06:34.945Z,41.35
2019-05-25T11:09:08.160Z,39.87
2019-05-25T11:11:40.850Z,39.44
2019-05-25T11:14:13.726Z,38.73
2019-05-25T11:16:46.062Z,38.38
2019-05-25T11:19:18.684Z,41.39
2019-05-25T11:21:51.051Z,40.98
2019-05-25T11:24:23.709Z,41.64
2019-05-25T11:26:59.587Z,41.88
2019-05-25T11:29:30.877Z,42.27
2019-05-25T11:32:06.040Z,40.11
2019-05-25T11:34:38.645Z,40.35
2019-05-25T11:37:11.263Z,39.72
2019-05-25T11:39:43.444Z,39.73
2019-05-25T11:42:15.574Z,39.67
2019-05-25T11:44:48.727Z,39.61
2019-05-25T11:47:21.045Z,41.37
2019-05-25T11:49:53.010Z,38.75
2019-05-25T11:52:25.065Z,39.33
2019-05-25T11:54:56.877Z,40.33
2019-05-25T11:57:29.450Z,40.84
2019-05-25T12:00:01.892Z,39.17
2019-05-25T12:02:34.791Z,39.60
2019-05-25T12:05:08.118Z,40.61
2019-05-25T12:07:44.636Z,41.95
2019-05-25T12:10:17.390Z,42.10
2019-05-25T12:12:49.790Z,43.13
2019-05-25T12:15:22.772Z,40.78
2019-05-25T12:17:55.289Z,40.82
2019-05-25T12:20:27.843Z,38.83
2019-05-25T12:23:00.064Z,39.90
2019-05-25T12:25:32.019Z,41.39
2019-05-25T12:28:04.893Z,39.94
2019-05-25T12:30:40.907Z,40.46
2019-05-25T12:33:11.259Z,41.88
2019-05-25T12:35:45.156Z,39.81
2019-05-25T12:38:16.832Z,39.81
2019-05-25T12:40:53.620Z,39.96
2019-05-25T12:43:23.105Z,40.26
2019-05-25T12:45:55.648Z,39.48
2019-05-25T12:48:27.694Z,40.63
2019-05-25T12:50:59.480Z,41.32
2019-05-25T12:53:31.336Z,39.75
2019-05-25T12:56:03.826Z,40.41
2019-05-25T12:58:36.351Z,40.30
2019-05-25T13:01:08.461Z,40.49
2019-05-25T13:03:40.770Z,39.42
2019-05-25T13:06:13.839Z,39.78
2019-05-25T13:08:45.806Z,39.08
2019-05-25T13:11:18.263Z,39.21
2019-05-25T13:13:50.754Z,39.41
2019-05-25T13:16:24.054Z,39.54
2019-05-25T13:18:56.827Z,39.25
2019-05-25T13:21:29.379Z,37.33
2019-05-25T13:24:01.359Z,37.50
2019-05-25T13:26:33.222Z,38.29
2019-05-25T13:29:05.008Z,37.70
2019-05-25T13:31:36.814Z,37.05
2019-05-25T13:34:08.707Z,37.44
2019-05-25T13:36:40.488Z,36.64
2019-05-25T13:39:12.352Z,36.31
2019-05-25T13:41:44.146Z,38.05
2019-05-25T13:44:15.943Z,38.01
2019-05-25T13:46:47.752Z,39.01
2019-05-25T13:49:19.704Z,39.10
2019-05-25T13:51:52.057Z,39.59
2019-05-25T13:54:24.954Z,39.00
2019-05-25T13:56:57.636Z,36.78
2019-05-25T13:59:30.386Z,36.77
2019-05-25T14:02:03.323Z,36.30
2019-05-25T14:04:35.919Z,35.66
2019-05-25T14:07:08.098Z,35.11
2019-05-25T14:09:40.565Z,35.93
2019-05-25T14:12:12.627Z,35.61
2019-05-25T14:14:44.546Z,34.17
2019-05-25T14:17:16.439Z,35.19
2019-05-25T14:19:48.304Z,34.53
2019-05-25T14:22:20.299Z,34.67
2019-05-25T14:24:52.153Z,34.35
2019-05-25T14:27:23.997Z,33.33
2019-05-25T14:29:56.004Z,32.34
2019-05-25T14:32:27.945Z,32.20
2019-05-25T14:34:59.727Z,32.59
2019-05-25T14:37:31.665Z,33.33
2019-05-25T14:40:03.587Z,33.72
2019-05-25T14:42:35.446Z,34.58
2019-05-25T14:45:07.591Z,34.95
2019-05-25T14:47:39.479Z,34.00
2019-05-25T14:50:11.444Z,34.37
2019-05-25T14:52:43.737Z,34.15
2019-05-25T14:55:15.882Z,33.57
2019-05-25T14:57:48.074Z,34.15
2019-05-25T15:00:20.926Z,33.87
2019-05-25T15:02:53.114Z,34.11
2019-05-25T15:05:26.015Z,34.32
2019-05-25T15:07:58.058Z,34.53
2019-05-25T15:10:29.834Z,35.86
2019-05-25T15:13:01.765Z,37.20
2019-05-25T15:15:33.535Z,37.92
2019-05-25T15:18:05.332Z,38.49
2019-05-25T15:20:37.107Z,38.63
2019-05-25T15:23:08.921Z,38.98
2019-05-25T15:25:40.696Z,39.35
2019-05-25T15:28:12.580Z,38.66
2019-05-25T15:30:44.372Z,38.30
2019-05-25T15:33:16.224Z,39.78
2019-05-25T15:35:48.017Z,39.88
2019-05-25T15:38:19.789Z,40.35
2019-05-25T15:40:51.667Z,41.18
2019-05-25T15:43:23.508Z,41.87
2019-05-25T15:45:55.741Z,41.22
2019-05-25T15:48:27.630Z,41.84
2019-05-25T15:50:59.782Z,41.48
2019-05-25T15:53:31.812Z,42.19
2019-05-25T15:56:03.685Z,41.68
2019-05-25T15:58:35.626Z,41.40
2019-05-25T16:01:07.411Z,40.75
2019-05-25T16:03:39.275Z,41.28
2019-05-25T16:06:11.131Z,40.50
2019-05-25T16:08:43.001Z,40.49
2019-05-25T16:11:14.798Z,40.60
2019-05-25T16:13:46.745Z,41.43
2019-05-25T16:16:18.538Z,42.04
2019-05-25T16:18:50.413Z,41.86
2019-05-25T16:21:22.302Z,42.75
2019-05-25T16:23:54.171Z,42.56
2019-05-25T16:26:26.222Z,42.65
2019-05-25T16:28:58.118Z,43.69
2019-05-25T16:31:29.976Z,44.65
2019-05-25T16:34:01.845Z,44.22
2019-05-25T16:36:33.642Z,44.34
2019-05-25T16:39:07.085Z,44.47
2019-05-25T16:41:38.953Z,45.27
2019-05-25T16:44:10.798Z,45.26
2019-05-25T16:46:42.635Z,45.20
2019-05-25T16:49:14.801Z,46.00
2019-05-25T16:51:46.674Z,46.55
2019-05-25T16:54:18.533Z,46.37
2019-05-25T16:56:50.325Z,46.56
2019-05-25T16:59:22.192Z,46.68
2019-05-25T17:01:54.101Z,47.38
2019-05-25T17:04:30.956Z,46.50
2019-05-25T17:07:02.915Z,46.64
2019-05-25T17:09:35.341Z,45.48
2019-05-25T17:12:07.218Z,46.49
2019-05-25T17:14:39.170Z,46.04
2019-05-25T17:17:11.049Z,45.57
2019-05-25T17:19:43.280Z,44.09
2019-05-25T17:22:15.253Z,44.46
2019-05-25T17:24:47.121Z,45.18
2019-05-25T17:27:19.055Z,43.30
2019-05-25T17:29:50.958Z,43.79
2019-05-25T17:32:22.981Z,44.11
2019-05-25T17:34:54.768Z,43.95
2019-05-25T17:37:26.644Z,44.16
2019-05-25T17:39:58.915Z,44.34
2019-05-25T17:42:30.792Z,44.80
2019-05-25T17:45:03.676Z,45.04
2019-05-25T17:47:35.537Z,44.46
2019-05-25T17:50:07.483Z,44.86
2019-05-25T17:52:39.331Z,44.97
2019-05-25T17:55:11.221Z,44.92
2019-05-25T17:57:43.012Z,45.33
2019-05-25T18:00:15.217Z,44.96
2019-05-25T18:02:47.797Z,44.82
2019-05-25T18:05:19.655Z,44.44
2019-05-25T18:07:51.534Z,44.53
2019-05-25T18:10:23.415Z,44.44
2019-05-25T18:12:55.458Z,44.91
2019-05-25T18:15:27.324Z,44.96
2019-05-25T18:17:59.385Z,45.37
2019-05-25T18:20:31.230Z,45.70
2019-05-25T18:23:04.237Z,46.00
2019-05-25T18:25:36.663Z,46.40
2019-05-25T18:28:08.654Z,46.74
2019-05-25T18:30:40.449Z,47.39
2019-05-25T18:33:12.257Z,47.87
2019-05-25T18:35:44.852Z,46.76
2019-05-25T18:38:16.891Z,47.20
2019-05-25T18:40:49.709Z,47.70
2019-05-25T18:43:22.220Z,48.11
2019-05-25T18:45:54.414Z,48.25
2019-05-25T18:48:27.467Z,48.36
2019-05-25T18:50:59.940Z,48.84
2019-05-25T18:53:32.543Z,48.95
2019-05-25T18:56:04.515Z,49.00
2019-05-25T18:58:36.774Z,49.47
2019-05-25T19:01:08.652Z,49.52
2019-05-25T19:03:40.742Z,50.51
2019-05-25T19:06:12.990Z,51.07
2019-05-25T19:08:44.869Z,50.71
2019-05-25T19:11:17.678Z,50.70
2019-05-25T19:13:49.875Z,49.69
2019-05-25T19:16:22.255Z,50.04
2019-05-25T19:18:54.346Z,50.36
2019-05-25T19:21:26.240Z,49.97
2019-05-25T19:23:58.027Z,50.00
2019-05-25T19:26:30.017Z,50.47
2019-05-25T19:29:05.441Z,50.70
2019-05-25T19:31:37.030Z,50.67
2019-05-25T19:34:09.913Z,50.99
2019-05-25T19:36:42.688Z,51.21
2019-05-25T19:39:15.614Z,51.58
2019-05-25T19:41:48.247Z,51.56
2019-05-25T19:44:20.082Z,51.94
2019-05-25T19:46:52.295Z,51.91
2019-05-25T19:49:25.618Z,51.91
2019-05-25T19:51:58.460Z,52.03
2019-05-25T19:54:31.275Z,52.29
2019-05-25T19:57:03.664Z,52.62
2019-05-25T19:59:36.703Z,52.81
2019-05-25T20:02:08.941Z,52.78
2019-05-25T20:04:41.934Z,52.39
2019-05-25T20:07:14.540Z,52.46
2019-05-25T20:09:47.498Z,52.77
2019-05-25T20:12:19.707Z,52.24
2019-05-25T20:14:51.804Z,52.20
2019-05-25T20:17:26.969Z,52.18
2019-05-25T20:20:03.619Z,52.56
2019-05-25T20:22:36.184Z,52.35
2019-05-25T20:25:09.436Z,52.19
2019-05-25T20:27:41.763Z,52.53
2019-05-25T20:30:14.076Z,52.91
2019-05-25T20:32:47.235Z,52.62
2019-05-25T20:35:32.507Z,52.47
2019-05-25T20:37:53.147Z,52.49
2019-05-25T20:40:26.088Z,52.87
2019-05-25T20:42:58.323Z,52.66
2019-05-25T20:45:30.892Z,53.02
2019-05-25T20:48:02.851Z,52.93
2019-05-25T20:50:34.752Z,52.74
2019-05-25T20:53:07.504Z,52.95
2019-05-25T20:55:40.077Z,52.86
2019-05-25T20:58:12.522Z,53.14
2019-05-25T21:00:45.583Z,53.93
2019-05-25T21:03:20.276Z,54.05
2019-05-25T21:05:53.817Z,54.35
2019-05-25T21:08:30.953Z,54.37
2019-05-25T21:11:02.983Z,54.42
2019-05-25T21:13:36.222Z,54.67
2019-05-25T21:16:08.114Z,55.03
2019-05-25T21:18:40.387Z,54.98
2019-05-25T21:21:12.474Z,56.40
2019-05-25T21:23:44.530Z,54.62
2019-05-25T21:26:16.366Z,55.03
2019-05-25T21:28:48.237Z,54.78
2019-05-25T21:31:23.636Z,55.20
2019-05-25T21:33:54.163Z,55.20
2019-05-25T21:36:26.225Z,55.10
2019-05-25T21:38:58.300Z,55.14
2019-05-25T21:41:30.137Z,55.51
2019-05-25T21:44:02.049Z,55.41
2019-05-25T21:46:34.636Z,55.70
2019-05-25T21:49:07.168Z,56.04
2019-05-25T21:51:39.025Z,56.12
2019-05-25T21:54:11.846Z,56.08
2019-05-25T21:56:43.686Z,57.13
2019-05-25T21:59:15.715Z,57.71
2019-05-25T22:01:47.918Z,57.23
2019-05-25T22:04:19.806Z,57.98
2019-05-25T22:06:51.715Z,58.60
2019-05-25T22:09:23.597Z,59.19
2019-05-25T22:11:57.907Z,59.53
2019-05-25T22:14:32.652Z,59.08
2019-05-25T22:17:04.590Z,59.55
2019-05-25T22:19:36.480Z,60.00
2019-05-25T22:22:08.643Z,59.96
2019-05-25T22:24:41.049Z,60.41
2019-05-25T22:27:13.536Z,60.59
2019-05-25T22:29:45.534Z,60.56
2019-05-25T22:32:17.585Z,60.90
2019-05-25T22:34:49.519Z,61.25
2019-05-25T22:37:22.025Z,61.21
2019-05-25T22:39:54.706Z,61.17
2019-05-25T22:42:26.820Z,60.68
2019-05-25T22:44:58.693Z,60.68
2019-05-25T22:47:30.743Z,60.47
2019-05-25T22:50:02.707Z,61.09
2019-05-25T22:52:34.592Z,60.94
2019-05-25T22:55:06.782Z,60.98
2019-05-25T22:57:38.987Z,60.63
2019-05-25T23:00:11.332Z,61.11
2019-05-25T23:02:43.951Z,61.30
2019-05-25T23:05:16.000Z,61.30
2019-05-25T23:07:47.905Z,61.81
2019-05-25T23:10:19.983Z,61.68
2019-05-25T23:12:51.913Z,61.86
2019-05-25T23:15:24.030Z,61.96
2019-05-25T23:17:55.835Z,62.03
2019-05-25T23:20:27.714Z,62.12
2019-05-25T23:23:00.553Z,62.10
2019-05-25T23:25:32.423Z,61.99
2019-05-25T23:28:04.232Z,61.99
2019-05-25T23:30:36.064Z,61.70
2019-05-25T23:33:07.946Z,62.32
2019-05-25T23:35:40.017Z,62.68
2019-05-25T23:38:11.912Z,62.37
2019-05-25T23:40:43.778Z,62.31
2019-05-25T23:43:16.209Z,62.23
2019-05-25T23:45:48.086Z,62.52
2019-05-25T23:48:19.970Z,63.03
2019-05-25T23:50:51.866Z,63.02
2019-05-25T23:53:23.699Z,62.71
2019-05-25T23:55:55.570Z,62.43
2019-05-25T23:58:27.464Z,62.45
